sensor_id;sensor_type;location;lat;lon;timestamp;pressure;altitude;pressure_sealevel;temperature
51149;BMP280;37210;50.058;8.688;2022-08-01T00:02:00;100128.59;;;26.27
51149;BMP280;37210;50.058;8.688;2022-08-01T00:04:27;100124.34;;;26.37
51149;BMP280;37210;50.058;8.688;2022-08-01T00:06:54;100123.53;;;26.23
51149;BMP280;37210;50.058;8.688;2022-08-01T00:09:21;100120.09;;;26.21
51149;BMP280;37210;50.058;8.688;2022-08-01T00:11:50;100123.53;;;26.23
51149;BMP280;37210;50.058;8.688;2022-08-01T00:14:17;100121.09;;;26.05
51149;BMP280;37210;50.058;8.688;2022-08-01T00:16:45;100116.19;;;26.26
51149;BMP280;37210;50.058;8.688;2022-08-01T00:19:12;100123.78;;;26.20
51149;BMP280;37210;50.058;8.688;2022-08-01T00:21:39;100125.41;;;26.22
51149;BMP280;37210;50.058;8.688;2022-08-01T00:24:06;100129.72;;;26.37
51149;BMP280;37210;50.058;8.688;2022-08-01T00:26:34;100122.72;;;26.08
51149;BMP280;37210;50.058;8.688;2022-08-01T00:29:02;100126.22;;;26.23
51149;BMP280;37210;50.058;8.688;2022-08-01T00:31:30;100127.22;;;26.22
51149;BMP280;37210;50.058;8.688;2022-08-01T00:33:57;100132.59;;;25.93
51149;BMP280;37210;50.058;8.688;2022-08-01T00:36:24;100124.97;;;25.87
51149;BMP280;37210;50.058;8.688;2022-08-01T00:38:51;100125.53;;;25.92
51149;BMP280;37210;50.058;8.688;2022-08-01T00:41:18;100128.56;;;26.14
51149;BMP280;37210;50.058;8.688;2022-08-01T00:43:46;100128.44;;;26.16
51149;BMP280;37210;50.058;8.688;2022-08-01T00:46:15;100129.59;;;26.26
51149;BMP280;37210;50.058;8.688;2022-08-01T00:48:42;100130.28;;;26.16
51149;BMP280;37210;50.058;8.688;2022-08-01T00:51:09;100129.03;;;26.21
51149;BMP280;37210;50.058;8.688;2022-08-01T00:53:37;100125.31;;;25.95
51149;BMP280;37210;50.058;8.688;2022-08-01T00:56:05;100131.66;;;26.08
51149;BMP280;37210;50.058;8.688;2022-08-01T00:58:32;100135.13;;;26.23
51149;BMP280;37210;50.058;8.688;2022-08-01T01:01:00;100141.53;;;26.35
51149;BMP280;37210;50.058;8.688;2022-08-01T01:03:28;100134.63;;;26.31
51149;BMP280;37210;50.058;8.688;2022-08-01T01:06:01;100141.41;;;26.36
51149;BMP280;37210;50.058;8.688;2022-08-01T01:08:42;100133.78;;;26.30
51149;BMP280;37210;50.058;8.688;2022-08-01T01:11:16;100124.56;;;25.93
51149;BMP280;37210;50.058;8.688;2022-08-01T01:13:49;100143.69;;;26.01
51149;BMP280;37210;50.058;8.688;2022-08-01T01:16:20;100139.69;;;25.94
51149;BMP280;37210;50.058;8.688;2022-08-01T01:18:52;100133.28;;;26.11
51149;BMP280;37210;50.058;8.688;2022-08-01T01:24:21;100140.97;;;25.75
51149;BMP280;37210;50.058;8.688;2022-08-01T01:27:02;100146.28;;;26.03
51149;BMP280;37210;50.058;8.688;2022-08-01T01:29:41;100142.66;;;25.90
51149;BMP280;37210;50.058;8.688;2022-08-01T01:32:12;100139.03;;;25.91
51149;BMP280;37210;50.058;8.688;2022-08-01T01:34:44;100143.66;;;25.75
51149;BMP280;37210;50.058;8.688;2022-08-01T01:37:16;100143.75;;;25.73
51149;BMP280;37210;50.058;8.688;2022-08-01T01:39:46;100136.72;;;25.85
51149;BMP280;37210;50.058;8.688;2022-08-01T01:42:14;100146.78;;;25.81
51149;BMP280;37210;50.058;8.688;2022-08-01T01:44:45;100142.84;;;25.87
51149;BMP280;37210;50.058;8.688;2022-08-01T01:47:14;100149.75;;;25.91
51149;BMP280;37210;50.058;8.688;2022-08-01T01:49:43;100150.91;;;25.73
51149;BMP280;37210;50.058;8.688;2022-08-01T01:52:13;100156.50;;;25.70
51149;BMP280;37210;50.058;8.688;2022-08-01T01:54:44;100155.13;;;25.77
51149;BMP280;37210;50.058;8.688;2022-08-01T01:57:14;100157.16;;;25.73
51149;BMP280;37210;50.058;8.688;2022-08-01T01:59:44;100154.28;;;25.62
51149;BMP280;37210;50.058;8.688;2022-08-01T02:02:14;100150.44;;;25.66
51149;BMP280;37210;50.058;8.688;2022-08-01T02:04:45;100160.97;;;25.69
51149;BMP280;37210;50.058;8.688;2022-08-01T02:07:14;100161.06;;;25.54
51149;BMP280;37210;50.058;8.688;2022-08-01T02:09:51;100168.94;;;25.57
51149;BMP280;37210;50.058;8.688;2022-08-01T02:12:25;100162.59;;;25.72
51149;BMP280;37210;50.058;8.688;2022-08-01T02:14:54;100170.84;;;25.55
51149;BMP280;37210;50.058;8.688;2022-08-01T02:17:24;100167.41;;;25.53
51149;BMP280;37210;50.058;8.688;2022-08-01T02:19:52;100169.41;;;25.49
51149;BMP280;37210;50.058;8.688;2022-08-01T02:22:21;100170.97;;;25.23
51149;BMP280;37210;50.058;8.688;2022-08-01T02:25:00;100170.31;;;25.34
51149;BMP280;37210;50.058;8.688;2022-08-01T02:27:30;100167.19;;;25.42
51149;BMP280;37210;50.058;8.688;2022-08-01T02:30:06;100168.94;;;25.43
51149;BMP280;37210;50.058;8.688;2022-08-01T02:32:38;100168.69;;;25.31
51149;BMP280;37210;50.058;8.688;2022-08-01T02:35:11;100169.06;;;25.39
51149;BMP280;37210;50.058;8.688;2022-08-01T02:37:40;100168.38;;;25.08
51149;BMP280;37210;50.058;8.688;2022-08-01T02:40:09;100168.75;;;25.16
51149;BMP280;37210;50.058;8.688;2022-08-01T02:42:39;100172.94;;;25.06
51149;BMP280;37210;50.058;8.688;2022-08-01T02:45:13;100165.00;;;24.90
51149;BMP280;37210;50.058;8.688;2022-08-01T02:47:41;100164.00;;;24.61
51149;BMP280;37210;50.058;8.688;2022-08-01T02:50:10;100170.38;;;24.75
51149;BMP280;37210;50.058;8.688;2022-08-01T02:52:42;100165.91;;;24.75
51149;BMP280;37210;50.058;8.688;2022-08-01T02:55:12;100172.78;;;24.79
51149;BMP280;37210;50.058;8.688;2022-08-01T02:57:41;100171.78;;;24.96
51149;BMP280;37210;50.058;8.688;2022-08-01T03:00:10;100176.09;;;24.98
51149;BMP280;37210;50.058;8.688;2022-08-01T03:02:39;100175.34;;;24.96
51149;BMP280;37210;50.058;8.688;2022-08-01T03:05:07;100178.66;;;24.86
51149;BMP280;37210;50.058;8.688;2022-08-01T03:07:36;100173.78;;;24.47
51149;BMP280;37210;50.058;8.688;2022-08-01T03:10:04;100180.97;;;24.46
51149;BMP280;37210;50.058;8.688;2022-08-01T03:12:33;100180.66;;;24.67
51149;BMP280;37210;50.058;8.688;2022-08-01T03:15:02;100181.31;;;24.86
51149;BMP280;37210;50.058;8.688;2022-08-01T03:17:31;100177.31;;;24.63
51149;BMP280;37210;50.058;8.688;2022-08-01T03:20:01;100179.22;;;24.61
51149;BMP280;37210;50.058;8.688;2022-08-01T03:22:30;100180.75;;;24.65
51149;BMP280;37210;50.058;8.688;2022-08-01T03:25:00;100177.00;;;24.83
51149;BMP280;37210;50.058;8.688;2022-08-01T03:27:28;100179.41;;;24.72
51149;BMP280;37210;50.058;8.688;2022-08-01T03:29:56;100181.63;;;24.95
51149;BMP280;37210;50.058;8.688;2022-08-01T03:32:26;100177.25;;;24.94
51149;BMP280;37210;50.058;8.688;2022-08-01T03:34:54;100190.78;;;24.91
51149;BMP280;37210;50.058;8.688;2022-08-01T03:37:25;100180.03;;;24.93
51149;BMP280;37210;50.058;8.688;2022-08-01T03:39:55;100185.13;;;24.82
51149;BMP280;37210;50.058;8.688;2022-08-01T03:42:28;100184.47;;;24.63
51149;BMP280;37210;50.058;8.688;2022-08-01T03:44:59;100177.81;;;24.70
51149;BMP280;37210;50.058;8.688;2022-08-01T03:47:31;100173.91;;;24.59
51149;BMP280;37210;50.058;8.688;2022-08-01T03:50:01;100177.38;;;24.61
51149;BMP280;37210;50.058;8.688;2022-08-01T03:52:31;100184.63;;;24.59
51149;BMP280;37210;50.058;8.688;2022-08-01T03:55:01;100183.78;;;24.59
51149;BMP280;37210;50.058;8.688;2022-08-01T03:57:32;100182.72;;;24.61
51149;BMP280;37210;50.058;8.688;2022-08-01T04:00:01;100184.28;;;24.66
51149;BMP280;37210;50.058;8.688;2022-08-01T04:02:38;100178.66;;;24.70
51149;BMP280;37210;50.058;8.688;2022-08-01T04:05:06;100184.00;;;24.70
51149;BMP280;37210;50.058;8.688;2022-08-01T04:07:35;100175.19;;;24.68
51149;BMP280;37210;50.058;8.688;2022-08-01T04:10:03;100174.13;;;24.56
51149;BMP280;37210;50.058;8.688;2022-08-01T04:12:31;100180.16;;;24.76
51149;BMP280;37210;50.058;8.688;2022-08-01T04:14:59;100182.06;;;24.74
51149;BMP280;37210;50.058;8.688;2022-08-01T04:17:26;100182.25;;;24.85
51149;BMP280;37210;50.058;8.688;2022-08-01T04:19:53;100191.41;;;24.51
51149;BMP280;37210;50.058;8.688;2022-08-01T04:22:20;100184.19;;;24.67
51149;BMP280;37210;50.058;8.688;2022-08-01T04:24:49;100187.53;;;24.71
51149;BMP280;37210;50.058;8.688;2022-08-01T04:27:21;100189.53;;;24.83
51149;BMP280;37210;50.058;8.688;2022-08-01T04:29:50;100189.81;;;24.78
51149;BMP280;37210;50.058;8.688;2022-08-01T04:32:21;100194.19;;;24.79
51149;BMP280;37210;50.058;8.688;2022-08-01T04:34:49;100197.75;;;24.80
51149;BMP280;37210;50.058;8.688;2022-08-01T04:37:17;100199.13;;;24.55
51149;BMP280;37210;50.058;8.688;2022-08-01T04:39:45;100204.41;;;24.57
51149;BMP280;37210;50.058;8.688;2022-08-01T04:42:18;100206.72;;;24.63
51149;BMP280;37210;50.058;8.688;2022-08-01T04:44:45;100207.75;;;24.60
51149;BMP280;37210;50.058;8.688;2022-08-01T04:47:12;100206.53;;;24.82
51149;BMP280;37210;50.058;8.688;2022-08-01T04:49:40;100208.75;;;24.89
51149;BMP280;37210;50.058;8.688;2022-08-01T04:52:08;100205.50;;;24.84
51149;BMP280;37210;50.058;8.688;2022-08-01T04:54:35;100216.44;;;24.64
51149;BMP280;37210;50.058;8.688;2022-08-01T04:57:05;100211.22;;;24.78
51149;BMP280;37210;50.058;8.688;2022-08-01T04:59:34;100207.88;;;24.89
51149;BMP280;37210;50.058;8.688;2022-08-01T05:02:06;100216.41;;;24.95
51149;BMP280;37210;50.058;8.688;2022-08-01T05:04:35;100210.91;;;25.12
51149;BMP280;37210;50.058;8.688;2022-08-01T05:07:03;100214.22;;;25.02
51149;BMP280;37210;50.058;8.688;2022-08-01T05:09:31;100213.44;;;25.29
51149;BMP280;37210;50.058;8.688;2022-08-01T05:11:58;100212.44;;;25.60
51149;BMP280;37210;50.058;8.688;2022-08-01T05:14:27;100211.22;;;25.80
51149;BMP280;37210;50.058;8.688;2022-08-01T05:16:59;100210.44;;;25.92
51149;BMP280;37210;50.058;8.688;2022-08-01T05:19:28;100213.41;;;25.87
51149;BMP280;37210;50.058;8.688;2022-08-01T05:21:57;100217.69;;;25.62
51149;BMP280;37210;50.058;8.688;2022-08-01T05:24:26;100222.38;;;25.72
51149;BMP280;37210;50.058;8.688;2022-08-01T05:26:55;100223.75;;;25.51
51149;BMP280;37210;50.058;8.688;2022-08-01T05:29:23;100229.19;;;25.50
51149;BMP280;37210;50.058;8.688;2022-08-01T05:31:51;100228.25;;;25.35
51149;BMP280;37210;50.058;8.688;2022-08-01T05:34:23;100228.09;;;25.38
51149;BMP280;37210;50.058;8.688;2022-08-01T05:36:50;100238.47;;;25.44
51149;BMP280;37210;50.058;8.688;2022-08-01T05:39:17;100239.13;;;25.62
51149;BMP280;37210;50.058;8.688;2022-08-01T05:41:44;100241.72;;;25.49
51149;BMP280;37210;50.058;8.688;2022-08-01T05:44:11;100238.69;;;25.55
51149;BMP280;37210;50.058;8.688;2022-08-01T05:46:39;100239.56;;;25.40
51149;BMP280;37210;50.058;8.688;2022-08-01T05:49:06;100239.66;;;25.38
51149;BMP280;37210;50.058;8.688;2022-08-01T05:51:34;100241.53;;;25.52
51149;BMP280;37210;50.058;8.688;2022-08-01T05:54:02;100239.41;;;25.43
51149;BMP280;37210;50.058;8.688;2022-08-01T05:56:30;100236.72;;;25.43
51149;BMP280;37210;50.058;8.688;2022-08-01T05:58:57;100233.72;;;25.33
51149;BMP280;37210;50.058;8.688;2022-08-01T06:01:24;100242.88;;;25.59
51149;BMP280;37210;50.058;8.688;2022-08-01T06:03:51;100247.53;;;25.12
51149;BMP280;37210;50.058;8.688;2022-08-01T06:06:19;100247.44;;;25.43
51149;BMP280;37210;50.058;8.688;2022-08-01T06:08:48;100237.03;;;25.53
51149;BMP280;37210;50.058;8.688;2022-08-01T06:11:16;100234.91;;;25.58
51149;BMP280;37210;50.058;8.688;2022-08-01T06:13:43;100236.22;;;25.36
51149;BMP280;37210;50.058;8.688;2022-08-01T06:16:10;100240.63;;;25.37
51149;BMP280;37210;50.058;8.688;2022-08-01T06:18:39;100246.50;;;25.28
51149;BMP280;37210;50.058;8.688;2022-08-01T06:21:06;100255.41;;;25.59
51149;BMP280;37210;50.058;8.688;2022-08-01T06:23:33;100258.09;;;25.59
51149;BMP280;37210;50.058;8.688;2022-08-01T06:26:04;100257.31;;;25.57
51149;BMP280;37210;50.058;8.688;2022-08-01T06:28:31;100258.06;;;25.45
51149;BMP280;37210;50.058;8.688;2022-08-01T06:30:59;100265.16;;;25.60
51149;BMP280;37210;50.058;8.688;2022-08-01T06:33:26;100263.16;;;25.63
51149;BMP280;37210;50.058;8.688;2022-08-01T06:35:54;100261.38;;;25.64
51149;BMP280;37210;50.058;8.688;2022-08-01T06:38:21;100260.56;;;25.62
51149;BMP280;37210;50.058;8.688;2022-08-01T06:40:49;100260.09;;;25.69
51149;BMP280;37210;50.058;8.688;2022-08-01T06:43:18;100264.75;;;25.52
51149;BMP280;37210;50.058;8.688;2022-08-01T06:45:46;100261.63;;;25.59
51149;BMP280;37210;50.058;8.688;2022-08-01T06:48:14;100262.41;;;25.61
51149;BMP280;37210;50.058;8.688;2022-08-01T06:50:41;100253.38;;;25.62
51149;BMP280;37210;50.058;8.688;2022-08-01T06:53:09;100265.09;;;25.61
51149;BMP280;37210;50.058;8.688;2022-08-01T06:55:36;100267.16;;;25.56
51149;BMP280;37210;50.058;8.688;2022-08-01T06:58:04;100274.00;;;25.76
51149;BMP280;37210;50.058;8.688;2022-08-01T07:00:33;100268.72;;;25.74
51149;BMP280;37210;50.058;8.688;2022-08-01T07:03:00;100273.88;;;25.63
51149;BMP280;37210;50.058;8.688;2022-08-01T07:05:27;100264.50;;;25.70
51149;BMP280;37210;50.058;8.688;2022-08-01T07:07:56;100264.38;;;25.58
51149;BMP280;37210;50.058;8.688;2022-08-01T07:10:24;100263.66;;;25.84
51149;BMP280;37210;50.058;8.688;2022-08-01T07:12:51;100259.47;;;26.08
51149;BMP280;37210;50.058;8.688;2022-08-01T07:15:18;100261.44;;;26.04
51149;BMP280;37210;50.058;8.688;2022-08-01T07:17:53;100261.63;;;26.01
51149;BMP280;37210;50.058;8.688;2022-08-01T07:20:20;100262.91;;;26.24
51149;BMP280;37210;50.058;8.688;2022-08-01T07:22:47;100263.44;;;26.29
51149;BMP280;37210;50.058;8.688;2022-08-01T07:25:15;100258.66;;;26.34
51149;BMP280;37210;50.058;8.688;2022-08-01T07:27:42;100252.69;;;26.43
51149;BMP280;37210;50.058;8.688;2022-08-01T07:30:12;100257.06;;;26.58
51149;BMP280;37210;50.058;8.688;2022-08-01T07:32:39;100251.81;;;26.83
51149;BMP280;37210;50.058;8.688;2022-08-01T07:35:08;100260.44;;;26.88
51149;BMP280;37210;50.058;8.688;2022-08-01T07:37:36;100252.09;;;26.93
51149;BMP280;37210;50.058;8.688;2022-08-01T07:40:10;100254.84;;;26.91
51149;BMP280;37210;50.058;8.688;2022-08-01T07:42:38;100251.34;;;26.91
51149;BMP280;37210;50.058;8.688;2022-08-01T07:45:10;100247.06;;;27.01
51149;BMP280;37210;50.058;8.688;2022-08-01T07:47:39;100248.50;;;27.32
51149;BMP280;37210;50.058;8.688;2022-08-01T07:50:09;100244.16;;;27.04
51149;BMP280;37210;50.058;8.688;2022-08-01T07:52:38;100247.84;;;27.16
51149;BMP280;37210;50.058;8.688;2022-08-01T07:55:08;100237.75;;;27.19
51149;BMP280;37210;50.058;8.688;2022-08-01T07:57:36;100232.00;;;27.38
51149;BMP280;37210;50.058;8.688;2022-08-01T08:00:05;100235.75;;;27.48
51149;BMP280;37210;50.058;8.688;2022-08-01T08:02:34;100234.81;;;27.49
51149;BMP280;37210;50.058;8.688;2022-08-01T08:05:01;100247.69;;;27.69
51149;BMP280;37210;50.058;8.688;2022-08-01T08:07:30;100242.56;;;27.66
51149;BMP280;37210;50.058;8.688;2022-08-01T08:09:58;100239.00;;;27.78
51149;BMP280;37210;50.058;8.688;2022-08-01T08:12:27;100242.75;;;27.63
51149;BMP280;37210;50.058;8.688;2022-08-01T08:14:54;100241.06;;;27.49
51149;BMP280;37210;50.058;8.688;2022-08-01T08:17:21;100240.81;;;27.01
51149;BMP280;37210;50.058;8.688;2022-08-01T08:19:48;100254.25;;;27.40
51149;BMP280;37210;50.058;8.688;2022-08-01T08:22:19;100246.19;;;27.65
51149;BMP280;37210;50.058;8.688;2022-08-01T08:24:48;100253.06;;;27.69
51149;BMP280;37210;50.058;8.688;2022-08-01T08:27:15;100247.56;;;27.45
51149;BMP280;37210;50.058;8.688;2022-08-01T08:29:42;100249.44;;;27.57
51149;BMP280;37210;50.058;8.688;2022-08-01T08:32:10;100243.94;;;27.72
51149;BMP280;37210;50.058;8.688;2022-08-01T08:34:39;100245.75;;;27.84
51149;BMP280;37210;50.058;8.688;2022-08-01T08:37:06;100259.44;;;27.81
51149;BMP280;37210;50.058;8.688;2022-08-01T08:39:34;100257.50;;;27.70
51149;BMP280;37210;50.058;8.688;2022-08-01T08:42:04;100259.09;;;27.73
51149;BMP280;37210;50.058;8.688;2022-08-01T08:44:33;100261.13;;;27.69
51149;BMP280;37210;50.058;8.688;2022-08-01T08:47:01;100254.06;;;27.68
51149;BMP280;37210;50.058;8.688;2022-08-01T08:49:31;100259.94;;;27.73
51149;BMP280;37210;50.058;8.688;2022-08-01T08:52:02;100260.25;;;27.81
51149;BMP280;37210;50.058;8.688;2022-08-01T08:54:31;100260.59;;;27.77
51149;BMP280;37210;50.058;8.688;2022-08-01T08:56:59;100259.84;;;27.75
51149;BMP280;37210;50.058;8.688;2022-08-01T08:59:29;100262.00;;;27.69
51149;BMP280;37210;50.058;8.688;2022-08-01T09:01:56;100254.81;;;27.83
51149;BMP280;37210;50.058;8.688;2022-08-01T09:04:25;100264.38;;;27.74
51149;BMP280;37210;50.058;8.688;2022-08-01T09:06:53;100256.00;;;27.66
51149;BMP280;37210;50.058;8.688;2022-08-01T09:09:21;100260.09;;;27.97
51149;BMP280;37210;50.058;8.688;2022-08-01T09:11:48;100258.66;;;27.91
51149;BMP280;37210;50.058;8.688;2022-08-01T09:14:16;100252.09;;;28.20
51149;BMP280;37210;50.058;8.688;2022-08-01T09:16:59;100250.88;;;28.37
51149;BMP280;37210;50.058;8.688;2022-08-01T09:19:34;100251.16;;;28.45
51149;BMP280;37210;50.058;8.688;2022-08-01T09:22:03;100252.91;;;28.70
51149;BMP280;37210;50.058;8.688;2022-08-01T09:24:32;100253.41;;;28.75
51149;BMP280;37210;50.058;8.688;2022-08-01T09:27:00;100248.88;;;28.64
51149;BMP280;37210;50.058;8.688;2022-08-01T09:29:29;100252.34;;;28.77
51149;BMP280;37210;50.058;8.688;2022-08-01T09:31:57;100249.53;;;28.42
51149;BMP280;37210;50.058;8.688;2022-08-01T09:34:27;100256.06;;;28.64
51149;BMP280;37210;50.058;8.688;2022-08-01T09:36:56;100253.66;;;28.72
51149;BMP280;37210;50.058;8.688;2022-08-01T09:39:25;100248.63;;;28.55
51149;BMP280;37210;50.058;8.688;2022-08-01T09:41:54;100244.19;;;28.90
51149;BMP280;37210;50.058;8.688;2022-08-01T09:44:37;100242.34;;;29.14
51149;BMP280;37210;50.058;8.688;2022-08-01T09:47:05;100236.31;;;29.34
51149;BMP280;37210;50.058;8.688;2022-08-01T09:49:35;100244.44;;;29.67
51149;BMP280;37210;50.058;8.688;2022-08-01T09:52:10;100233.22;;;29.73
51149;BMP280;37210;50.058;8.688;2022-08-01T09:54:39;100236.28;;;30.02
51149;BMP280;37210;50.058;8.688;2022-08-01T09:57:11;100235.31;;;30.14
51149;BMP280;37210;50.058;8.688;2022-08-01T09:59:41;100241.31;;;30.18
51149;BMP280;37210;50.058;8.688;2022-08-01T10:02:10;100237.13;;;30.14
51149;BMP280;37210;50.058;8.688;2022-08-01T10:04:48;100235.53;;;30.22
51149;BMP280;37210;50.058;8.688;2022-08-01T10:07:17;100242.16;;;30.18
51149;BMP280;37210;50.058;8.688;2022-08-01T10:09:45;100244.13;;;30.05
51149;BMP280;37210;50.058;8.688;2022-08-01T10:12:14;100232.22;;;29.85
51149;BMP280;37210;50.058;8.688;2022-08-01T10:14:44;100243.22;;;29.60
51149;BMP280;37210;50.058;8.688;2022-08-01T10:17:15;100246.88;;;29.37
51149;BMP280;37210;50.058;8.688;2022-08-01T10:19:46;100245.25;;;29.35
51149;BMP280;37210;50.058;8.688;2022-08-01T10:22:17;100237.56;;;29.52
51149;BMP280;37210;50.058;8.688;2022-08-01T10:24:46;100240.66;;;28.66
51149;BMP280;37210;50.058;8.688;2022-08-01T10:27:15;100234.38;;;29.12
51149;BMP280;37210;50.058;8.688;2022-08-01T10:29:46;100234.38;;;29.12
51149;BMP280;37210;50.058;8.688;2022-08-01T10:32:18;100233.09;;;29.18
51149;BMP280;37210;50.058;8.688;2022-08-01T10:34:46;100234.00;;;29.06
51149;BMP280;37210;50.058;8.688;2022-08-01T10:37:16;100240.50;;;29.14
51149;BMP280;37210;50.058;8.688;2022-08-01T10:39:44;100239.94;;;28.98
51149;BMP280;37210;50.058;8.688;2022-08-01T10:42:11;100236.63;;;28.95
51149;BMP280;37210;50.058;8.688;2022-08-01T10:44:39;100236.53;;;28.73
51149;BMP280;37210;50.058;8.688;2022-08-01T10:47:08;100236.03;;;28.68
51149;BMP280;37210;50.058;8.688;2022-08-01T10:49:39;100232.06;;;28.61
51149;BMP280;37210;50.058;8.688;2022-08-01T10:52:13;100236.84;;;28.81
51149;BMP280;37210;50.058;8.688;2022-08-01T10:54:42;100224.19;;;29.05
51149;BMP280;37210;50.058;8.688;2022-08-01T10:57:11;100225.75;;;28.96
51149;BMP280;37210;50.058;8.688;2022-08-01T10:59:47;100224.53;;;29.00
51149;BMP280;37210;50.058;8.688;2022-08-01T11:02:25;100229.91;;;29.00
51149;BMP280;37210;50.058;8.688;2022-08-01T11:04:55;100215.72;;;28.98
51149;BMP280;37210;50.058;8.688;2022-08-01T11:07:35;100219.88;;;28.91
51149;BMP280;37210;50.058;8.688;2022-08-01T11:10:22;100216.72;;;28.97
51149;BMP280;37210;50.058;8.688;2022-08-01T11:12:52;100217.47;;;28.39
51149;BMP280;37210;50.058;8.688;2022-08-01T11:15:20;100217.19;;;28.31
51149;BMP280;37210;50.058;8.688;2022-08-01T11:17:53;100210.59;;;28.72
51149;BMP280;37210;50.058;8.688;2022-08-01T11:20:21;100203.84;;;29.25
51149;BMP280;37210;50.058;8.688;2022-08-01T11:26:10;100194.44;;;29.63
51149;BMP280;37210;50.058;8.688;2022-08-01T11:28:39;100184.44;;;29.76
51149;BMP280;37210;50.058;8.688;2022-08-01T11:31:28;100192.22;;;29.35
51149;BMP280;37210;50.058;8.688;2022-08-01T11:33:56;100187.59;;;29.37
51149;BMP280;37210;50.058;8.688;2022-08-01T11:36:25;100190.91;;;29.06
51149;BMP280;37210;50.058;8.688;2022-08-01T11:39:12;100179.81;;;29.21
51149;BMP280;37210;50.058;8.688;2022-08-01T11:41:43;100181.69;;;29.43
51149;BMP280;37210;50.058;8.688;2022-08-01T11:44:12;100168.81;;;29.36
51149;BMP280;37210;50.058;8.688;2022-08-01T11:46:48;100183.66;;;29.06
51149;BMP280;37210;50.058;8.688;2022-08-01T11:49:24;100181.56;;;29.23
51149;BMP280;37210;50.058;8.688;2022-08-01T11:51:59;100182.19;;;29.37
51149;BMP280;37210;50.058;8.688;2022-08-01T11:54:29;100177.66;;;29.03
51149;BMP280;37210;50.058;8.688;2022-08-01T11:57:00;100174.56;;;29.20
51149;BMP280;37210;50.058;8.688;2022-08-01T11:59:36;100173.25;;;29.02
51149;BMP280;37210;50.058;8.688;2022-08-01T12:02:14;100171.50;;;29.25
51149;BMP280;37210;50.058;8.688;2022-08-01T12:04:48;100165.75;;;29.18
51149;BMP280;37210;50.058;8.688;2022-08-01T12:07:19;100171.88;;;29.31
51149;BMP280;37210;50.058;8.688;2022-08-01T12:09:58;100159.03;;;29.35
51149;BMP280;37210;50.058;8.688;2022-08-01T12:12:30;100152.88;;;29.44
51149;BMP280;37210;50.058;8.688;2022-08-01T12:15:02;100155.97;;;29.50
51149;BMP280;37210;50.058;8.688;2022-08-01T12:17:31;100154.63;;;29.23
51149;BMP280;37210;50.058;8.688;2022-08-01T12:20:12;100146.44;;;29.79
51149;BMP280;37210;50.058;8.688;2022-08-01T12:22:41;100138.97;;;29.83
51149;BMP280;37210;50.058;8.688;2022-08-01T12:25:11;100141.38;;;30.08
51149;BMP280;37210;50.058;8.688;2022-08-01T12:27:44;100140.38;;;30.20
51149;BMP280;37210;50.058;8.688;2022-08-01T12:30:14;100145.53;;;30.12
51149;BMP280;37210;50.058;8.688;2022-08-01T12:32:42;100138.34;;;30.02
51149;BMP280;37210;50.058;8.688;2022-08-01T12:35:12;100137.78;;;30.30
51149;BMP280;37210;50.058;8.688;2022-08-01T12:37:41;100126.09;;;30.29
51149;BMP280;37210;50.058;8.688;2022-08-01T12:40:11;100131.41;;;30.20
51149;BMP280;37210;50.058;8.688;2022-08-01T12:42:40;100137.88;;;30.28
51149;BMP280;37210;50.058;8.688;2022-08-01T12:45:12;100131.28;;;30.21
51149;BMP280;37210;50.058;8.688;2022-08-01T12:47:41;100136.44;;;30.35
51149;BMP280;37210;50.058;8.688;2022-08-01T12:50:11;100133.50;;;30.16
51149;BMP280;37210;50.058;8.688;2022-08-01T12:52:41;100130.31;;;30.11
51149;BMP280;37210;50.058;8.688;2022-08-01T12:55:10;100126.53;;;30.02
51149;BMP280;37210;50.058;8.688;2022-08-01T12:57:39;100137.78;;;30.19
51149;BMP280;37210;50.058;8.688;2022-08-01T13:00:17;100139.28;;;30.12
51149;BMP280;37210;50.058;8.688;2022-08-01T13:02:47;100137.56;;;30.11
51149;BMP280;37210;50.058;8.688;2022-08-01T13:05:16;100130.44;;;30.21
51149;BMP280;37210;50.058;8.688;2022-08-01T13:07:47;100121.88;;;30.05
51149;BMP280;37210;50.058;8.688;2022-08-01T13:10:23;100128.03;;;29.95
51149;BMP280;37210;50.058;8.688;2022-08-01T13:12:53;100123.03;;;29.91
51149;BMP280;37210;50.058;8.688;2022-08-01T13:15:24;100132.31;;;29.98
51149;BMP280;37210;50.058;8.688;2022-08-01T13:17:53;100124.28;;;30.19
51149;BMP280;37210;50.058;8.688;2022-08-01T13:20:22;100127.91;;;30.08
51149;BMP280;37210;50.058;8.688;2022-08-01T13:22:50;100129.09;;;30.15
51149;BMP280;37210;50.058;8.688;2022-08-01T13:25:18;100132.38;;;30.30
51149;BMP280;37210;50.058;8.688;2022-08-01T13:27:45;100129.78;;;30.28
51149;BMP280;37210;50.058;8.688;2022-08-01T13:30:16;100130.44;;;30.21
51149;BMP280;37210;50.058;8.688;2022-08-01T13:32:56;100134.41;;;30.06
51149;BMP280;37210;50.058;8.688;2022-08-01T13:35:25;100131.19;;;30.12
51149;BMP280;37210;50.058;8.688;2022-08-01T13:37:52;100131.97;;;29.91
51149;BMP280;37210;50.058;8.688;2022-08-01T13:40:24;100135.69;;;30.22
51149;BMP280;37210;50.058;8.688;2022-08-01T13:42:53;100126.75;;;30.33
51149;BMP280;37210;50.058;8.688;2022-08-01T13:45:22;100132.38;;;30.30
51149;BMP280;37210;50.058;8.688;2022-08-01T13:47:51;100126.75;;;30.11
51149;BMP280;37210;50.058;8.688;2022-08-01T13:50:18;100126.47;;;30.36
51149;BMP280;37210;50.058;8.688;2022-08-01T13:52:45;100132.97;;;30.33
51149;BMP280;37210;50.058;8.688;2022-08-01T13:55:13;100130.41;;;30.32
51149;BMP280;37210;50.058;8.688;2022-08-01T13:57:40;100132.88;;;30.35
51149;BMP280;37210;50.058;8.688;2022-08-01T14:00:08;100127.09;;;30.28
51149;BMP280;37210;50.058;8.688;2022-08-01T14:02:38;100129.44;;;30.33
51149;BMP280;37210;50.058;8.688;2022-08-01T14:05:08;100130.03;;;30.25
51149;BMP280;37210;50.058;8.688;2022-08-01T14:07:35;100126.25;;;30.17
51149;BMP280;37210;50.058;8.688;2022-08-01T14:10:02;100124.16;;;30.31
51149;BMP280;37210;50.058;8.688;2022-08-01T14:12:30;100130.81;;;30.16
51149;BMP280;37210;50.058;8.688;2022-08-01T14:14:57;100126.38;;;30.26
51149;BMP280;37210;50.058;8.688;2022-08-01T14:17:25;100127.41;;;30.03